sensor_id;sensor_type;location;lat;lon;timestamp;P1;durP1;ratioP1;P2;durP2;ratioP2
9657;SDS011;4867;48.112;11.622;2022-07-18T00:00:13;3.60;;;3.30;;
9657;SDS011;4867;48.112;11.622;2022-07-18T00:02:40;5.30;;;3.50;;
9657;SDS011;4867;48.112;11.622;2022-07-18T00:05:07;3.77;;;3.40;;
9657;SDS011;4867;48.112;11.622;2022-07-18T00:07:35;3.63;;;3.33;;
9657;SDS011;4867;48.112;11.622;2022-07-18T00:10:02;4.57;;;3.30;;
9657;SDS011;4867;48.112;11.622;2022-07-18T00:12:30;3.60;;;3.30;;
9657;SDS011;4867;48.112;11.622;2022-07-18T00:14:57;4.00;;;3.70;;
9657;SDS011;4867;48.112;11.622;2022-07-18T00:17:26;5.03;;;3.70;;
9657;SDS011;4867;48.112;11.622;2022-07-18T00:19:55;5.07;;;3.60;;
9657;SDS011;4867;48.112;11.622;2022-07-18T00:22:22;3.80;;;3.43;;
9657;SDS011;4867;48.112;11.622;2022-07-18T00:24:50;3.33;;;3.03;;
9657;SDS011;4867;48.112;11.622;2022-07-18T00:27:17;4.00;;;3.70;;
9657;SDS011;4867;48.112;11.622;2022-07-18T00:29:44;4.00;;;3.60;;
9657;SDS011;4867;48.112;11.622;2022-07-18T00:32:12;3.77;;;3.47;;
9657;SDS011;4867;48.112;11.622;2022-07-18T00:34:42;3.77;;;3.40;;
9657;SDS011;4867;48.112;11.622;2022-07-18T00:37:10;3.80;;;3.50;;
9657;SDS011;4867;48.112;11.622;2022-07-18T00:39:37;3.87;;;3.47;;
9657;SDS011;4867;48.112;11.622;2022-07-18T00:42:04;3.90;;;3.50;;
9657;SDS011;4867;48.112;11.622;2022-07-18T00:44:31;3.90;;;3.50;;
9657;SDS011;4867;48.112;11.622;2022-07-18T00:47:00;4.23;;;3.30;;
9657;SDS011;4867;48.112;11.622;2022-07-18T00:49:28;3.60;;;3.30;;
9657;SDS011;4867;48.112;11.622;2022-07-18T00:51:56;3.90;;;3.60;;
9657;SDS011;4867;48.112;11.622;2022-07-18T00:54:23;3.57;;;3.27;;
9657;SDS011;4867;48.112;11.622;2022-07-18T00:56:52;4.07;;;3.77;;
9657;SDS011;4867;48.112;11.622;2022-07-18T00:59:20;3.57;;;3.27;;
9657;SDS011;4867;48.112;11.622;2022-07-18T01:01:47;3.77;;;3.43;;
9657;SDS011;4867;48.112;11.622;2022-07-18T01:04:22;4.00;;;3.60;;
9657;SDS011;4867;48.112;11.622;2022-07-18T01:06:50;3.83;;;3.10;;
9657;SDS011;4867;48.112;11.622;2022-07-18T01:09:18;4.23;;;3.60;;
9657;SDS011;4867;48.112;11.622;2022-07-18T01:11:46;4.20;;;3.57;;
9657;SDS011;4867;48.112;11.622;2022-07-18T01:14:14;4.20;;;3.57;;
9657;SDS011;4867;48.112;11.622;2022-07-18T01:16:41;3.60;;;3.30;;
9657;SDS011;4867;48.112;11.622;2022-07-18T01:19:09;5.27;;;3.50;;
9657;SDS011;4867;48.112;11.622;2022-07-18T01:21:37;3.93;;;3.63;;
9657;SDS011;4867;48.112;11.622;2022-07-18T01:24:06;3.80;;;3.50;;
9657;SDS011;4867;48.112;11.622;2022-07-18T01:26:33;4.40;;;3.70;;
9657;SDS011;4867;48.112;11.622;2022-07-18T01:29:00;4.10;;;3.80;;
9657;SDS011;4867;48.112;11.622;2022-07-18T01:31:28;4.73;;;3.60;;
9657;SDS011;4867;48.112;11.622;2022-07-18T01:34:00;4.07;;;3.67;;
9657;SDS011;4867;48.112;11.622;2022-07-18T01:36:27;5.37;;;3.70;;
9657;SDS011;4867;48.112;11.622;2022-07-18T01:38:55;4.93;;;3.60;;
9657;SDS011;4867;48.112;11.622;2022-07-18T01:41:22;3.87;;;3.57;;
9657;SDS011;4867;48.112;11.622;2022-07-18T01:43:49;4.97;;;3.67;;
9657;SDS011;4867;48.112;11.622;2022-07-18T01:46:16;4.00;;;3.70;;
9657;SDS011;4867;48.112;11.622;2022-07-18T01:48:50;4.97;;;3.57;;
9657;SDS011;4867;48.112;11.622;2022-07-18T01:51:18;5.53;;;3.60;;
9657;SDS011;4867;48.112;11.622;2022-07-18T01:53:53;5.83;;;3.70;;
9657;SDS011;4867;48.112;11.622;2022-07-18T01:56:25;4.27;;;3.87;;
9657;SDS011;4867;48.112;11.622;2022-07-18T01:58:52;4.10;;;3.70;;
9657;SDS011;4867;48.112;11.622;2022-07-18T02:01:19;4.40;;;4.00;;
9657;SDS011;4867;48.112;11.622;2022-07-18T02:03:48;4.00;;;3.67;;
9657;SDS011;4867;48.112;11.622;2022-07-18T02:06:15;3.93;;;3.60;;
9657;SDS011;4867;48.112;11.622;2022-07-18T02:08:46;4.50;;;3.50;;
9657;SDS011;4867;48.112;11.622;2022-07-18T02:11:13;3.90;;;3.60;;
9657;SDS011;4867;48.112;11.622;2022-07-18T02:13:40;4.03;;;3.63;;
9657;SDS011;4867;48.112;11.622;2022-07-18T02:16:07;4.20;;;3.80;;
9657;SDS011;4867;48.112;11.622;2022-07-18T02:18:34;4.10;;;3.80;;
9657;SDS011;4867;48.112;11.622;2022-07-18T02:21:08;3.80;;;3.43;;
9657;SDS011;4867;48.112;11.622;2022-07-18T02:23:35;4.10;;;3.80;;
9657;SDS011;4867;48.112;11.622;2022-07-18T02:26:03;4.17;;;3.80;;
9657;SDS011;4867;48.112;11.622;2022-07-18T02:28:30;4.43;;;4.03;;
9657;SDS011;4867;48.112;11.622;2022-07-18T02:31:05;4.00;;;3.70;;
9657;SDS011;4867;48.112;11.622;2022-07-18T02:33:32;4.17;;;3.87;;
9657;SDS011;4867;48.112;11.622;2022-07-18T02:36:00;4.13;;;3.70;;
9657;SDS011;4867;48.112;11.622;2022-07-18T02:38:27;4.10;;;3.70;;
9657;SDS011;4867;48.112;11.622;2022-07-18T02:40:54;4.63;;;4.03;;
9657;SDS011;4867;48.112;11.622;2022-07-18T02:43:21;3.83;;;3.53;;
9657;SDS011;4867;48.112;11.622;2022-07-18T02:45:49;4.30;;;3.90;;
9657;SDS011;4867;48.112;11.622;2022-07-18T02:48:17;4.80;;;3.60;;
9657;SDS011;4867;48.112;11.622;2022-07-18T02:50:49;4.60;;;3.50;;
9657;SDS011;4867;48.112;11.622;2022-07-18T02:53:15;4.57;;;3.90;;
9657;SDS011;4867;48.112;11.622;2022-07-18T02:55:45;3.93;;;3.53;;
9657;SDS011;4867;48.112;11.622;2022-07-18T02:58:13;4.07;;;3.23;;
9657;SDS011;4867;48.112;11.622;2022-07-18T03:00:41;4.20;;;3.80;;
9657;SDS011;4867;48.112;11.622;2022-07-18T03:03:09;4.27;;;3.70;;
9657;SDS011;4867;48.112;11.622;2022-07-18T03:05:36;4.03;;;3.63;;
9657;SDS011;4867;48.112;11.622;2022-07-18T03:08:03;4.03;;;3.73;;
9657;SDS011;4867;48.112;11.622;2022-07-18T03:10:30;4.17;;;3.87;;
9657;SDS011;4867;48.112;11.622;2022-07-18T03:12:57;4.07;;;3.67;;
9657;SDS011;4867;48.112;11.622;2022-07-18T03:15:24;4.13;;;3.73;;
9657;SDS011;4867;48.112;11.622;2022-07-18T03:17:51;4.30;;;3.90;;
9657;SDS011;4867;48.112;11.622;2022-07-18T03:20:18;4.10;;;3.80;;
9657;SDS011;4867;48.112;11.622;2022-07-18T03:22:45;4.20;;;3.80;;
9657;SDS011;4867;48.112;11.622;2022-07-18T03:25:12;6.10;;;4.13;;
9657;SDS011;4867;48.112;11.622;2022-07-18T03:27:41;4.53;;;4.10;;
9657;SDS011;4867;48.112;11.622;2022-07-18T03:30:09;4.20;;;3.80;;
9657;SDS011;4867;48.112;11.622;2022-07-18T03:32:36;4.20;;;3.77;;
9657;SDS011;4867;48.112;11.622;2022-07-18T03:35:03;4.40;;;4.00;;
9657;SDS011;4867;48.112;11.622;2022-07-18T03:37:31;4.80;;;4.40;;
9657;SDS011;4867;48.112;11.622;2022-07-18T03:39:58;4.93;;;4.53;;
9657;SDS011;4867;48.112;11.622;2022-07-18T03:42:25;4.50;;;4.20;;
9657;SDS011;4867;48.112;11.622;2022-07-18T03:44:52;4.60;;;4.13;;
9657;SDS011;4867;48.112;11.622;2022-07-18T03:47:19;4.37;;;3.93;;
9657;SDS011;4867;48.112;11.622;2022-07-18T03:49:45;5.87;;;4.13;;
9657;SDS011;4867;48.112;11.622;2022-07-18T03:52:12;4.07;;;3.77;;
9657;SDS011;4867;48.112;11.622;2022-07-18T03:54:39;5.37;;;4.10;;
9657;SDS011;4867;48.112;11.622;2022-07-18T03:57:07;5.07;;;3.97;;
9657;SDS011;4867;48.112;11.622;2022-07-18T03:59:34;4.40;;;4.00;;
9657;SDS011;4867;48.112;11.622;2022-07-18T04:02:01;6.10;;;4.10;;
9657;SDS011;4867;48.112;11.622;2022-07-18T04:04:29;6.10;;;4.40;;
9657;SDS011;4867;48.112;11.622;2022-07-18T04:06:56;4.80;;;4.40;;
9657;SDS011;4867;48.112;11.622;2022-07-18T04:09:26;5.20;;;4.40;;
9657;SDS011;4867;48.112;11.622;2022-07-18T04:11:53;5.20;;;4.37;;
9657;SDS011;4867;48.112;11.622;2022-07-18T04:14:20;4.80;;;4.30;;
9657;SDS011;4867;48.112;11.622;2022-07-18T04:16:49;4.90;;;4.40;;
9657;SDS011;4867;48.112;11.622;2022-07-18T04:19:16;4.80;;;4.37;;
9657;SDS011;4867;48.112;11.622;2022-07-18T04:21:45;4.53;;;4.23;;
9657;SDS011;4867;48.112;11.622;2022-07-18T04:24:12;4.87;;;4.40;;
9657;SDS011;4867;48.112;11.622;2022-07-18T04:26:40;5.00;;;4.50;;
9657;SDS011;4867;48.112;11.622;2022-07-18T04:29:07;4.63;;;4.23;;
9657;SDS011;4867;48.112;11.622;2022-07-18T04:31:34;4.70;;;4.30;;
9657;SDS011;4867;48.112;11.622;2022-07-18T04:34:01;4.87;;;4.43;;
9657;SDS011;4867;48.112;11.622;2022-07-18T04:36:28;4.80;;;4.13;;
9657;SDS011;4867;48.112;11.622;2022-07-18T04:38:55;6.70;;;4.30;;
9657;SDS011;4867;48.112;11.622;2022-07-18T04:41:22;4.87;;;4.20;;
9657;SDS011;4867;48.112;11.622;2022-07-18T04:43:51;4.30;;;4.00;;
9657;SDS011;4867;48.112;11.622;2022-07-18T04:46:18;5.90;;;4.27;;
9657;SDS011;4867;48.112;11.622;2022-07-18T04:48:46;6.30;;;4.40;;
9657;SDS011;4867;48.112;11.622;2022-07-18T04:51:13;5.57;;;4.00;;
9657;SDS011;4867;48.112;11.622;2022-07-18T04:53:40;4.20;;;3.77;;
9657;SDS011;4867;48.112;11.622;2022-07-18T04:56:07;6.33;;;4.10;;
9657;SDS011;4867;48.112;11.622;2022-07-18T04:58:34;4.37;;;4.00;;
9657;SDS011;4867;48.112;11.622;2022-07-18T05:01:01;5.23;;;4.33;;
9657;SDS011;4867;48.112;11.622;2022-07-18T05:03:28;5.87;;;4.13;;
9657;SDS011;4867;48.112;11.622;2022-07-18T05:05:55;4.60;;;4.20;;
9657;SDS011;4867;48.112;11.622;2022-07-18T05:08:22;4.20;;;3.80;;
9657;SDS011;4867;48.112;11.622;2022-07-18T05:10:48;4.50;;;4.10;;
9657;SDS011;4867;48.112;11.622;2022-07-18T05:13:15;5.20;;;4.13;;
9657;SDS011;4867;48.112;11.622;2022-07-18T05:15:42;4.60;;;4.20;;
9657;SDS011;4867;48.112;11.622;2022-07-18T05:18:09;4.30;;;3.90;;
9657;SDS011;4867;48.112;11.622;2022-07-18T05:20:36;4.40;;;4.00;;
9657;SDS011;4867;48.112;11.622;2022-07-18T05:23:09;5.97;;;3.93;;
9657;SDS011;4867;48.112;11.622;2022-07-18T05:25:36;5.00;;;4.27;;
9657;SDS011;4867;48.112;11.622;2022-07-18T05:28:03;6.03;;;4.27;;
9657;SDS011;4867;48.112;11.622;2022-07-18T05:30:30;5.60;;;4.07;;
9657;SDS011;4867;48.112;11.622;2022-07-18T05:32:57;4.43;;;4.00;;
9657;SDS011;4867;48.112;11.622;2022-07-18T05:35:24;4.70;;;4.13;;
9657;SDS011;4867;48.112;11.622;2022-07-18T05:37:51;6.07;;;4.07;;
9657;SDS011;4867;48.112;11.622;2022-07-18T05:40:18;7.30;;;3.87;;
9657;SDS011;4867;48.112;11.622;2022-07-18T05:42:45;10.23;;;4.50;;
9657;SDS011;4867;48.112;11.622;2022-07-18T05:45:22;4.83;;;4.27;;
9657;SDS011;4867;48.112;11.622;2022-07-18T05:47:50;6.33;;;4.17;;
9657;SDS011;4867;48.112;11.622;2022-07-18T05:50:18;5.73;;;4.00;;
9657;SDS011;4867;48.112;11.622;2022-07-18T05:52:46;4.97;;;4.43;;
9657;SDS011;4867;48.112;11.622;2022-07-18T05:55:13;5.07;;;3.90;;
9657;SDS011;4867;48.112;11.622;2022-07-18T05:57:41;5.83;;;3.83;;
9657;SDS011;4867;48.112;11.622;2022-07-18T06:00:08;4.80;;;3.67;;
9657;SDS011;4867;48.112;11.622;2022-07-18T06:02:37;4.53;;;4.07;;
9657;SDS011;4867;48.112;11.622;2022-07-18T06:05:05;4.17;;;3.80;;
9657;SDS011;4867;48.112;11.622;2022-07-18T06:07:52;3.90;;;3.47;;
9657;SDS011;4867;48.112;11.622;2022-07-18T06:10:20;4.60;;;3.87;;
9657;SDS011;4867;48.112;11.622;2022-07-18T06:12:50;6.37;;;4.00;;
9657;SDS011;4867;48.112;11.622;2022-07-18T06:15:18;3.97;;;3.67;;
9657;SDS011;4867;48.112;11.622;2022-07-18T06:17:46;4.20;;;3.80;;
9657;SDS011;4867;48.112;11.622;2022-07-18T06:20:13;4.20;;;3.60;;
9657;SDS011;4867;48.112;11.622;2022-07-18T06:22:40;4.50;;;3.97;;
9657;SDS011;4867;48.112;11.622;2022-07-18T06:25:08;4.50;;;3.90;;
9657;SDS011;4867;48.112;11.622;2022-07-18T06:27:37;4.00;;;3.60;;
9657;SDS011;4867;48.112;11.622;2022-07-18T06:30:04;5.03;;;3.43;;
9657;SDS011;4867;48.112;11.622;2022-07-18T06:32:35;6.83;;;4.00;;
9657;SDS011;4867;48.112;11.622;2022-07-18T06:35:04;5.17;;;3.53;;
9657;SDS011;4867;48.112;11.622;2022-07-18T06:37:31;4.53;;;3.87;;
9657;SDS011;4867;48.112;11.622;2022-07-18T06:39:58;5.07;;;3.67;;
9657;SDS011;4867;48.112;11.622;2022-07-18T06:42:29;5.00;;;3.73;;
9657;SDS011;4867;48.112;11.622;2022-07-18T06:44:57;5.13;;;3.70;;
9657;SDS011;4867;48.112;11.622;2022-07-18T06:47:24;5.33;;;3.40;;
9657;SDS011;4867;48.112;11.622;2022-07-18T06:49:50;4.30;;;3.90;;
9657;SDS011;4867;48.112;11.622;2022-07-18T06:52:17;4.70;;;3.40;;
9657;SDS011;4867;48.112;11.622;2022-07-18T06:54:44;6.10;;;3.63;;
9657;SDS011;4867;48.112;11.622;2022-07-18T06:57:11;4.07;;;3.67;;
9657;SDS011;4867;48.112;11.622;2022-07-18T06:59:38;4.37;;;3.47;;
9657;SDS011;4867;48.112;11.622;2022-07-18T07:02:13;6.40;;;3.43;;
9657;SDS011;4867;48.112;11.622;2022-07-18T07:04:40;4.63;;;3.30;;
9657;SDS011;4867;48.112;11.622;2022-07-18T07:07:06;4.77;;;3.50;;
9657;SDS011;4867;48.112;11.622;2022-07-18T07:09:33;4.57;;;3.67;;
9657;SDS011;4867;48.112;11.622;2022-07-18T07:12:00;3.93;;;3.30;;
9657;SDS011;4867;48.112;11.622;2022-07-18T07:14:27;3.80;;;3.33;;
9657;SDS011;4867;48.112;11.622;2022-07-18T07:16:54;4.53;;;3.27;;
9657;SDS011;4867;48.112;11.622;2022-07-18T07:19:20;4.93;;;3.10;;
9657;SDS011;4867;48.112;11.622;2022-07-18T07:21:47;4.33;;;3.17;;
9657;SDS011;4867;48.112;11.622;2022-07-18T07:24:14;3.43;;;2.97;;
9657;SDS011;4867;48.112;11.622;2022-07-18T07:26:41;5.23;;;3.43;;
9657;SDS011;4867;48.112;11.622;2022-07-18T07:29:08;5.20;;;3.60;;
9657;SDS011;4867;48.112;11.622;2022-07-18T07:31:34;4.17;;;3.20;;
9657;SDS011;4867;48.112;11.622;2022-07-18T07:34:02;4.20;;;3.20;;
9657;SDS011;4867;48.112;11.622;2022-07-18T07:36:32;5.80;;;3.60;;
9657;SDS011;4867;48.112;11.622;2022-07-18T07:38:59;7.07;;;3.20;;
9657;SDS011;4867;48.112;11.622;2022-07-18T07:41:26;4.30;;;2.80;;
9657;SDS011;4867;48.112;11.622;2022-07-18T07:43:53;5.90;;;2.93;;
9657;SDS011;4867;48.112;11.622;2022-07-18T07:46:20;10.50;;;3.27;;
9657;SDS011;4867;48.112;11.622;2022-07-18T07:48:47;6.43;;;2.70;;
9657;SDS011;4867;48.112;11.622;2022-07-18T07:51:14;8.70;;;3.00;;
9657;SDS011;4867;48.112;11.622;2022-07-18T07:53:41;7.33;;;2.90;;
9657;SDS011;4867;48.112;11.622;2022-07-18T07:56:08;3.20;;;2.90;;
9657;SDS011;4867;48.112;11.622;2022-07-18T07:58:35;5.00;;;3.10;;
9657;SDS011;4867;48.112;11.622;2022-07-18T08:01:01;4.32;;;3.08;;
9657;SDS011;4867;48.112;11.622;2022-07-18T08:03:28;6.83;;;2.50;;
9657;SDS011;4867;48.112;11.622;2022-07-18T08:05:57;4.87;;;2.60;;
9657;SDS011;4867;48.112;11.622;2022-07-18T08:08:23;4.73;;;2.83;;
9657;SDS011;4867;48.112;11.622;2022-07-18T08:10:51;4.45;;;2.60;;
9657;SDS011;4867;48.112;11.622;2022-07-18T08:13:19;4.57;;;2.65;;
9657;SDS011;4867;48.112;11.622;2022-07-18T08:15:46;8.77;;;3.00;;
9657;SDS011;4867;48.112;11.622;2022-07-18T08:18:13;4.55;;;3.10;;
9657;SDS011;4867;48.112;11.622;2022-07-18T08:20:40;4.75;;;2.50;;
9657;SDS011;4867;48.112;11.622;2022-07-18T08:23:07;4.47;;;2.67;;
9657;SDS011;4867;48.112;11.622;2022-07-18T08:25:38;5.15;;;3.00;;
9657;SDS011;4867;48.112;11.622;2022-07-18T08:28:06;2.70;;;2.50;;
9657;SDS011;4867;48.112;11.622;2022-07-18T08:30:34;3.00;;;2.70;;
9657;SDS011;4867;48.112;11.622;2022-07-18T08:33:02;3.58;;;2.90;;
9657;SDS011;4867;48.112;11.622;2022-07-18T08:35:29;3.17;;;2.65;;
9657;SDS011;4867;48.112;11.622;2022-07-18T08:37:58;3.00;;;2.70;;
9657;SDS011;4867;48.112;11.622;2022-07-18T08:40:26;4.30;;;2.50;;
9657;SDS011;4867;48.112;11.622;2022-07-18T08:42:53;2.90;;;2.60;;
9657;SDS011;4867;48.112;11.622;2022-07-18T08:45:42;3.70;;;2.50;;
9657;SDS011;4867;48.112;11.622;2022-07-18T08:48:12;3.22;;;2.50;;
9657;SDS011;4867;48.112;11.622;2022-07-18T08:50:44;2.67;;;2.47;;
9657;SDS011;4867;48.112;11.622;2022-07-18T08:53:12;3.17;;;2.42;;
9657;SDS011;4867;48.112;11.622;2022-07-18T08:55:40;5.28;;;2.40;;
9657;SDS011;4867;48.112;11.622;2022-07-18T08:58:08;2.78;;;2.58;;
9657;SDS011;4867;48.112;11.622;2022-07-18T09:00:56;4.22;;;2.50;;
9657;SDS011;4867;48.112;11.622;2022-07-18T09:03:26;3.45;;;2.50;;
9657;SDS011;4867;48.112;11.622;2022-07-18T09:06:09;3.40;;;2.50;;
9657;SDS011;4867;48.112;11.622;2022-07-18T09:08:56;2.97;;;2.42;;
9657;SDS011;4867;48.112;11.622;2022-07-18T09:11:26;4.63;;;2.70;;
9657;SDS011;4867;48.112;11.622;2022-07-18T09:19:40;5.03;;;2.50;;
9657;SDS011;4867;48.112;11.622;2022-07-18T09:22:19;2.35;;;2.15;;
9657;SDS011;4867;48.112;11.622;2022-07-18T09:24:54;2.10;;;2.00;;
9657;SDS011;4867;48.112;11.622;2022-07-18T09:32:47;2.80;;;2.30;;
9657;SDS011;4867;48.112;11.622;2022-07-18T09:35:33;2.35;;;2.13;;
9657;SDS011;4867;48.112;11.622;2022-07-18T09:38:10;2.88;;;2.22;;
9657;SDS011;4867;48.112;11.622;2022-07-18T09:40:39;3.17;;;2.00;;
9657;SDS011;4867;48.112;11.622;2022-07-18T09:43:07;5.45;;;2.25;;
9657;SDS011;4867;48.112;11.622;2022-07-18T09:45:40;3.70;;;3.40;;
9657;SDS011;4867;48.112;11.622;2022-07-18T09:48:14;3.10;;;2.88;;
9657;SDS011;4867;48.112;11.622;2022-07-18T09:50:49;5.55;;;3.17;;
9657;SDS011;4867;48.112;11.622;2022-07-18T09:53:21;5.85;;;2.80;;
9657;SDS011;4867;48.112;11.622;2022-07-18T09:56:00;3.13;;;2.13;;
9657;SDS011;4867;48.112;11.622;2022-07-18T09:59:12;3.15;;;1.95;;
9657;SDS011;4867;48.112;11.622;2022-07-18T10:01:21;4.88;;;2.40;;
9657;SDS011;4867;48.112;11.622;2022-07-18T10:03:49;2.95;;;2.20;;
9657;SDS011;4867;48.112;11.622;2022-07-18T10:06:17;2.92;;;2.00;;
9657;SDS011;4867;48.112;11.622;2022-07-18T10:08:47;4.43;;;2.00;;
9657;SDS011;4867;48.112;11.622;2022-07-18T10:11:15;3.33;;;2.78;;
9657;SDS011;4867;48.112;11.622;2022-07-18T10:13:41;2.30;;;2.10;;
9657;SDS011;4867;48.112;11.622;2022-07-18T10:16:08;2.33;;;1.92;;
9657;SDS011;4867;48.112;11.622;2022-07-18T10:18:36;3.13;;;2.70;;
9657;SDS011;4867;48.112;11.622;2022-07-18T10:37:23;4.22;;;2.30;;
9657;SDS011;4867;48.112;11.622;2022-07-18T10:39:36;3.50;;;2.92;;
9657;SDS011;4867;48.112;11.622;2022-07-18T10:44:37;2.38;;;2.15;;
9657;SDS011;4867;48.112;11.622;2022-07-18T10:47:07;2.67;;;2.10;;
9657;SDS011;4867;48.112;11.622;2022-07-18T10:57:28;2.45;;;2.05;;
9657;SDS011;4867;48.112;11.622;2022-07-18T11:02:38;5.07;;;2.35;;
9657;SDS011;4867;48.112;11.622;2022-07-18T11:21:18;7.28;;;2.92;;
9657;SDS011;4867;48.112;11.622;2022-07-18T11:23:50;3.92;;;2.50;;
9657;SDS011;4867;48.112;11.622;2022-07-18T11:26:21;4.60;;;2.17;;
9657;SDS011;4867;48.112;11.622;2022-07-18T11:29:00;2.90;;;2.60;;
9657;SDS011;4867;48.112;11.622;2022-07-18T11:31:29;6.55;;;2.55;;
9657;SDS011;4867;48.112;11.622;2022-07-18T11:33:58;3.63;;;2.10;;
9657;SDS011;4867;48.112;11.622;2022-07-18T11:36:30;2.85;;;2.30;;
9657;SDS011;4867;48.112;11.622;2022-07-18T11:38:59;4.18;;;2.33;;
9657;SDS011;4867;48.112;11.622;2022-07-18T11:41:28;6.03;;;3.22;;
9657;SDS011;4867;48.112;11.622;2022-07-18T11:43:56;2.90;;;2.60;;
9657;SDS011;4867;48.112;11.622;2022-07-18T11:46:24;5.65;;;2.00;;
9657;SDS011;4867;48.112;11.622;2022-07-18T11:48:59;7.45;;;2.45;;
9657;SDS011;4867;48.112;11.622;2022-07-18T11:51:35;2.90;;;2.30;;
9657;SDS011;4867;48.112;11.622;2022-07-18T11:54:07;5.10;;;2.03;;
9657;SDS011;4867;48.112;11.622;2022-07-18T11:56:52;3.28;;;2.08;;
9657;SDS011;4867;48.112;11.622;2022-07-18T11:59:20;3.47;;;2.88;;
9657;SDS011;4867;48.112;11.622;2022-07-18T12:01:47;4.72;;;2.70;;
9657;SDS011;4867;48.112;11.622;2022-07-18T12:04:23;5.85;;;2.30;;
9657;SDS011;4867;48.112;11.622;2022-07-18T12:09:46;4.38;;;2.40;;
9657;SDS011;4867;48.112;11.622;2022-07-18T12:12:14;8.07;;;2.47;;
9657;SDS011;4867;48.112;11.622;2022-07-18T12:14:57;2.83;;;2.58;;
9657;SDS011;4867;48.112;11.622;2022-07-18T12:17:26;4.82;;;2.95;;
9657;SDS011;4867;48.112;11.622;2022-07-18T12:20:08;4.30;;;2.60;;
9657;SDS011;4867;48.112;11.622;2022-07-18T12:25:35;5.32;;;2.30;;
9657;SDS011;4867;48.112;11.622;2022-07-18T12:28:17;2.65;;;2.40;;
9657;SDS011;4867;48.112;11.622;2022-07-18T12:30:45;5.35;;;3.05;;
9657;SDS011;4867;48.112;11.622;2022-07-18T12:33:12;6.57;;;3.42;;
9657;SDS011;4867;48.112;11.622;2022-07-18T12:35:40;2.97;;;2.10;;
9657;SDS011;4867;48.112;11.622;2022-07-18T12:38:08;6.55;;;2.20;;
9657;SDS011;4867;48.112;11.622;2022-07-18T12:40:43;4.13;;;3.38;;
9657;SDS011;4867;48.112;11.622;2022-07-18T12:46:00;6.15;;;2.65;;
9657;SDS011;4867;48.112;11.622;2022-07-18T12:48:29;4.78;;;2.38;;
9657;SDS011;4867;48.112;11.622;2022-07-18T12:51:01;5.00;;;2.35;;
9657;SDS011;4867;48.112;11.622;2022-07-18T12:53:31;4.68;;;3.03;;
9657;SDS011;4867;48.112;11.622;2022-07-18T12:55:59;3.33;;;2.40;;
9657;SDS011;4867;48.112;11.622;2022-07-18T12:58:26;3.30;;;3.00;;
9657;SDS011;4867;48.112;11.622;2022-07-18T13:00:52;4.55;;;2.22;;
9657;SDS011;4867;48.112;11.622;2022-07-18T13:03:31;4.28;;;2.50;;
9657;SDS011;4867;48.112;11.622;2022-07-18T13:05:59;4.15;;;2.40;;
9657;SDS011;4867;48.112;11.622;2022-07-18T13:08:26;5.57;;;2.58;;
9657;SDS011;4867;48.112;11.622;2022-07-18T13:10:54;3.38;;;2.00;;
9657;SDS011;4867;48.112;11.622;2022-07-18T13:13:22;4.20;;;2.10;;
9657;SDS011;4867;48.112;11.622;2022-07-18T13:15:49;3.95;;;2.10;;
9657;SDS011;4867;48.112;11.622;2022-07-18T13:18:15;5.45;;;2.35;;
9657;SDS011;4867;48.112;11.622;2022-07-18T13:20:42;5.03;;;2.13;;
9657;SDS011;4867;48.112;11.622;2022-07-18T13:23:09;6.35;;;2.10;;
9657;SDS011;4867;48.112;11.622;2022-07-18T13:25:37;3.47;;;2.30;;
9657;SDS011;4867;48.112;11.622;2022-07-18T13:28:04;3.67;;;2.75;;
9657;SDS011;4867;48.112;11.622;2022-07-18T13:30:31;2.97;;;2.25;;
9657;SDS011;4867;48.112;11.622;2022-07-18T13:32:58;4.45;;;2.30;;
9657;SDS011;4867;48.112;11.622;2022-07-18T13:35:26;3.47;;;2.63;;
9657;SDS011;4867;48.112;11.622;2022-07-18T13:37:53;2.70;;;2.22;;
9657;SDS011;4867;48.112;11.622;2022-07-18T13:40:19;3.42;;;3.13;;
9657;SDS011;4867;48.112;11.622;2022-07-18T13:42:53;6.15;;;2.42;;
9657;SDS011;4867;48.112;11.622;2022-07-18T13:45:20;4.45;;;2.53;;
9657;SDS011;4867;48.112;11.622;2022-07-18T13:47:47;3.85;;;2.60;;
9657;SDS011;4867;48.112;11.622;2022-07-18T13:50:14;3.90;;;2.45;;
9657;SDS011;4867;48.112;11.622;2022-07-18T13:52:41;2.53;;;2.33;;
9657;SDS011;4867;48.112;11.622;2022-07-18T13:55:09;4.55;;;2.47;;
9657;SDS011;4867;48.112;11.622;2022-07-18T13:57:36;3.83;;;3.40;;
9657;SDS011;4867;48.112;11.622;2022-07-18T14:00:05;2.88;;;2.10;;
9657;SDS011;4867;48.112;11.622;2022-07-18T14:02:34;5.63;;;2.78;;
9657;SDS011;4867;48.112;11.622;2022-07-18T14:05:02;4.22;;;2.72;;
9657;SDS011;4867;48.112;11.622;2022-07-18T14:07:40;4.00;;;2.40;;
9657;SDS011;4867;48.112;11.622;2022-07-18T14:10:11;3.35;;;3.08;;
9657;SDS011;4867;48.112;11.622;2022-07-18T14:12:39;4.50;;;2.60;;
9657;SDS011;4867;48.112;11.622;2022-07-18T14:15:06;4.70;;;2.42;;
9657;SDS011;4867;48.112;11.622;2022-07-18T14:17:34;7.63;;;2.97;;
9657;SDS011;4867;48.112;11.622;2022-07-18T14:20:01;2.80;;;2.40;;
9657;SDS011;4867;48.112;11.622;2022-07-18T14:22:28;5.53;;;2.35;;
9657;SDS011;4867;48.112;11.622;2022-07-18T14:24:54;7.25;;;2.58;;
9657;SDS011;4867;48.112;11.622;2022-07-18T14:27:21;4.47;;;2.17;;
9657;SDS011;4867;48.112;11.622;2022-07-18T14:29:50;3.40;;;2.13;;
9657;SDS011;4867;48.112;11.622;2022-07-18T14:32:17;5.00;;;2.33;;
9657;SDS011;4867;48.112;11.622;2022-07-18T14:34:44;5.50;;;2.20;;
9657;SDS011;4867;48.112;11.622;2022-07-18T14:37:11;3.25;;;2.20;;
9657;SDS011;4867;48.112;11.622;2022-07-18T14:39:38;2.33;;;2.13;;
9657;SDS011;4867;48.112;11.622;2022-07-18T14:42:05;4.55;;;2.35;;
9657;SDS011;4867;48.112;11.622;2022-07-18T14:44:32;3.72;;;2.47;;
9657;SDS011;4867;48.112;11.622;2022-07-18T14:46:59;4.15;;;2.40;;
9657;SDS011;4867;48.112;11.622;2022-07-18T14:49:26;3.42;;;2.20;;
9657;SDS011;4867;48.112;11.622;2022-07-18T14:51:53;6.07;;;2.25;;
9657;SDS011;4867;48.112;11.622;2022-07-18T14:54:22;4.18;;;2.38;;
9657;SDS011;4867;48.112;11.622;2022-07-18T14:56:49;3.42;;;2.10;;
9657;SDS011;4867;48.112;11.622;2022-07-18T14:59:17;4.93;;;2.70;;
9657;SDS011;4867;48.112;11.622;2022-07-18T15:01:44;6.07;;;2.40;;
9657;SDS011;4867;48.112;11.622;2022-07-18T15:04:13;4.05;;;2.58;;
9657;SDS011;4867;48.112;11.622;2022-07-18T15:06:44;3.67;;;2.40;;
9657;SDS011;4867;48.112;11.622;2022-07-18T15:09:12;4.97;;;2.35;;
9657;SDS011;4867;48.112;11.622;2022-07-18T15:11:39;4.25;;;2.60;;
9657;SDS011;4867;48.112;11.622;2022-07-18T15:14:06;4.07;;;2.40;;
9657;SDS011;4867;48.112;11.622;2022-07-18T15:19:30;5.07;;;2.58;;
9657;SDS011;4867;48.112;11.622;2022-07-18T15:21:57;5.57;;;2.25;;
9657;SDS011;4867;48.112;11.622;2022-07-18T15:24:24;3.08;;;2.20;;
9657;SDS011;4867;48.112;11.622;2022-07-18T15:26:51;2.78;;;2.20;;
9657;SDS011;4867;48.112;11.622;2022-07-18T15:29:17;4.13;;;2.35;;
9657;SDS011;4867;48.112;11.622;2022-07-18T15:31:44;3.15;;;2.33;;
9657;SDS011;4867;48.112;11.622;2022-07-18T15:34:17;3.97;;;2.33;;
9657;SDS011;4867;48.112;11.622;2022-07-18T15:36:44;4.43;;;2.33;;
9657;SDS011;4867;48.112;11.622;2022-07-18T15:39:10;2.40;;;2.20;;
9657;SDS011;4867;48.112;11.622;2022-07-18T15:41:37;6.60;;;2.30;;
9657;SDS011;4867;48.112;11.622;2022-07-18T15:44:07;7.05;;;2.42;;
9657;SDS011;4867;48.112;11.622;2022-07-18T15:46:36;7.03;;;2.40;;
9657;SDS011;4867;48.112;11.622;2022-07-18T15:49:03;4.85;;;2.30;;
9657;SDS011;4867;48.112;11.622;2022-07-18T15:51:30;2.88;;;2.15;;
9657;SDS011;4867;48.112;11.622;2022-07-18T15:53:57;6.35;;;2.45;;
9657;SDS011;4867;48.112;11.622;2022-07-18T15:56:25;4.00;;;2.13;;
9657;SDS011;4867;48.112;11.622;2022-07-18T15:58:51;4.38;;;2.20;;
9657;SDS011;4867;48.112;11.622;2022-07-18T16:01:18;3.15;;;2.15;;
9657;SDS011;4867;48.112;11.622;2022-07-18T16:03:47;3.78;;;2.30;;
9657;SDS011;4867;48.112;11.622;2022-07-18T16:06:14;3.40;;;2.30;;
9657;SDS011;4867;48.112;11.622;2022-07-18T16:08:41;2.97;;;2.47;;
9657;SDS011;4867;48.112;11.622;2022-07-18T16:11:08;3.53;;;2.45;;
9657;SDS011;4867;48.112;11.622;2022-07-18T16:13:35;2.95;;;2.47;;
9657;SDS011;4867;48.112;11.622;2022-07-18T16:16:02;3.25;;;2.40;;